Elizabethport, New Jersey
Current Conditions -  °F | °C
As of 11:51 PM on Monday 20 Oct 2014 (Local Time) from KEWR Reporting Station
Overcast Overcast  
Wind Chill: 54°   Ceiling: 13000
Heat Index: 54°   Visibility: 10mi
Dew Point: 45°   Wind: 7mph
Humidity: 72%   Direction: 200°SSW
Pressure: 29.97"   Gusts: NA
Location:  40.6522°N, 74.1905°W
Report Text: KEWR 210351Z 20006KT 10SM BKN130 OVC250 12/07 A2997 RMK AO2 SLP148 T01220072
Loading
Personal Weather Stations






























Interactive Weather Map
Tropical Storm Tracking
New forecast layout! Learn more

10-Day Weather Forecast

Advertisements
Track Severe Weather on mobile